sensor_id;sensor_type;location;lat;lon;timestamp;temperature;humidity
52295;DHT22;38243;53.212;6.574;2022-11-20T00:00:48;15.40;86.70
52295;DHT22;38243;53.212;6.574;2022-11-20T00:03:14;15.40;86.70
52295;DHT22;38243;53.212;6.574;2022-11-20T00:05:40;15.40;86.70
52295;DHT22;38243;53.212;6.574;2022-11-20T00:08:05;15.40;86.60
52295;DHT22;38243;53.212;6.574;2022-11-20T00:10:32;15.40;86.70
52295;DHT22;38243;53.212;6.574;2022-11-20T00:12:58;15.40;86.70
52295;DHT22;38243;53.212;6.574;2022-11-20T00:15:27;15.40;86.50
52295;DHT22;38243;53.212;6.574;2022-11-20T00:17:52;15.40;86.70
52295;DHT22;38243;53.212;6.574;2022-11-20T00:20:19;15.40;87.00
52295;DHT22;38243;53.212;6.574;2022-11-20T00:22:44;15.40;86.90
52295;DHT22;38243;53.212;6.574;2022-11-20T00:25:10;15.40;88.00
52295;DHT22;38243;53.212;6.574;2022-11-20T00:27:37;15.40;88.50
52295;DHT22;38243;53.212;6.574;2022-11-20T00:30:03;15.40;88.70
52295;DHT22;38243;53.212;6.574;2022-11-20T00:32:30;15.40;88.70
52295;DHT22;38243;53.212;6.574;2022-11-20T00:34:55;15.40;88.40
52295;DHT22;38243;53.212;6.574;2022-11-20T00:37:24;15.40;88.40
52295;DHT22;38243;53.212;6.574;2022-11-20T00:39:50;15.40;88.70
52295;DHT22;38243;53.212;6.574;2022-11-20T00:42:16;15.40;88.60
52295;DHT22;38243;53.212;6.574;2022-11-20T00:44:42;15.40;88.10
52295;DHT22;38243;53.212;6.574;2022-11-20T00:47:07;15.50;88.10
52295;DHT22;38243;53.212;6.574;2022-11-20T00:49:33;15.40;88.00
52295;DHT22;38243;53.212;6.574;2022-11-20T00:51:59;15.40;88.10
52295;DHT22;38243;53.212;6.574;2022-11-20T00:54:24;15.40;88.00
52295;DHT22;38243;53.212;6.574;2022-11-20T00:56:52;15.40;87.90
52295;DHT22;38243;53.212;6.574;2022-11-20T00:59:18;15.40;87.80
52295;DHT22;38243;53.212;6.574;2022-11-20T01:01:44;15.40;87.90
52295;DHT22;38243;53.212;6.574;2022-11-20T01:04:10;15.40;88.00
52295;DHT22;38243;53.212;6.574;2022-11-20T01:06:38;15.40;87.70
52295;DHT22;38243;53.212;6.574;2022-11-20T01:09:11;15.40;87.50
52295;DHT22;38243;53.212;6.574;2022-11-20T01:11:38;15.40;87.60
52295;DHT22;38243;53.212;6.574;2022-11-20T01:14:09;15.40;87.60
52295;DHT22;38243;53.212;6.574;2022-11-20T01:16:38;15.40;87.30
52295;DHT22;38243;53.212;6.574;2022-11-20T01:19:06;15.40;87.10
52295;DHT22;38243;53.212;6.574;2022-11-20T01:21:35;15.40;87.30
52295;DHT22;38243;53.212;6.574;2022-11-20T01:24:02;15.40;87.20
52295;DHT22;38243;53.212;6.574;2022-11-20T01:26:31;15.40;87.10
52295;DHT22;38243;53.212;6.574;2022-11-20T01:28:58;15.40;87.10
52295;DHT22;38243;53.212;6.574;2022-11-20T01:31:26;15.40;87.10
52295;DHT22;38243;53.212;6.574;2022-11-20T01:33:54;15.40;87.10
52295;DHT22;38243;53.212;6.574;2022-11-20T01:36:22;15.40;86.90
52295;DHT22;38243;53.212;6.574;2022-11-20T01:38:50;15.40;86.90
52295;DHT22;38243;53.212;6.574;2022-11-20T01:41:16;15.40;86.90
52295;DHT22;38243;53.212;6.574;2022-11-20T01:44:02;15.40;86.80
52295;DHT22;38243;53.212;6.574;2022-11-20T01:46:28;15.40;86.60
52295;DHT22;38243;53.212;6.574;2022-11-20T01:49:21;15.40;86.50
52295;DHT22;38243;53.212;6.574;2022-11-20T01:51:55;15.40;86.20
52295;DHT22;38243;53.212;6.574;2022-11-20T01:54:25;15.40;85.90
52295;DHT22;38243;53.212;6.574;2022-11-20T01:56:56;15.40;86.40
52295;DHT22;38243;53.212;6.574;2022-11-20T01:59:23;15.30;86.60
52295;DHT22;38243;53.212;6.574;2022-11-20T02:01:51;15.40;86.50
52295;DHT22;38243;53.212;6.574;2022-11-20T02:04:17;15.40;86.70
52295;DHT22;38243;53.212;6.574;2022-11-20T02:06:54;15.40;86.70
52295;DHT22;38243;53.212;6.574;2022-11-20T02:09:22;15.30;86.30
52295;DHT22;38243;53.212;6.574;2022-11-20T02:11:48;15.30;86.70
52295;DHT22;38243;53.212;6.574;2022-11-20T02:14:14;15.30;86.50
52295;DHT22;38243;53.212;6.574;2022-11-20T02:16:44;15.30;86.70
52295;DHT22;38243;53.212;6.574;2022-11-20T02:19:31;15.30;86.40
52295;DHT22;38243;53.212;6.574;2022-11-20T02:22:12;15.30;86.40
52295;DHT22;38243;53.212;6.574;2022-11-20T02:24:40;15.30;86.50
52295;DHT22;38243;53.212;6.574;2022-11-20T02:27:10;15.30;86.50
52295;DHT22;38243;53.212;6.574;2022-11-20T02:29:48;15.30;86.70
52295;DHT22;38243;53.212;6.574;2022-11-20T02:32:26;15.30;86.70
52295;DHT22;38243;53.212;6.574;2022-11-20T02:34:53;15.40;86.70
52295;DHT22;38243;53.212;6.574;2022-11-20T02:37:20;15.30;86.60
52295;DHT22;38243;53.212;6.574;2022-11-20T02:39:50;15.30;86.50
52295;DHT22;38243;53.212;6.574;2022-11-20T02:42:17;15.30;86.40
52295;DHT22;38243;53.212;6.574;2022-11-20T02:44:43;15.30;86.20
52295;DHT22;38243;53.212;6.574;2022-11-20T02:47:08;15.30;86.40
52295;DHT22;38243;53.212;6.574;2022-11-20T02:49:34;15.30;86.50
52295;DHT22;38243;53.212;6.574;2022-11-20T02:52:00;15.40;86.50
52295;DHT22;38243;53.212;6.574;2022-11-20T02:54:26;15.30;86.40
52295;DHT22;38243;53.212;6.574;2022-11-20T02:56:52;15.40;85.90
52295;DHT22;38243;53.212;6.574;2022-11-20T02:59:17;15.30;85.60
52295;DHT22;38243;53.212;6.574;2022-11-20T03:01:43;15.30;84.90
52295;DHT22;38243;53.212;6.574;2022-11-20T03:04:09;15.30;85.80
52295;DHT22;38243;53.212;6.574;2022-11-20T03:06:34;15.30;86.00
52295;DHT22;38243;53.212;6.574;2022-11-20T03:09:00;15.30;86.00
52295;DHT22;38243;53.212;6.574;2022-11-20T03:11:26;15.30;86.00
52295;DHT22;38243;53.212;6.574;2022-11-20T03:13:51;15.30;85.80
52295;DHT22;38243;53.212;6.574;2022-11-20T03:16:19;15.50;85.90
52295;DHT22;38243;53.212;6.574;2022-11-20T03:18:45;15.30;85.70
52295;DHT22;38243;53.212;6.574;2022-11-20T03:21:12;15.30;85.70
52295;DHT22;38243;53.212;6.574;2022-11-20T03:23:38;15.30;85.60
52295;DHT22;38243;53.212;6.574;2022-11-20T03:28:37;15.30;85.60
52295;DHT22;38243;53.212;6.574;2022-11-20T03:31:08;15.30;85.70
52295;DHT22;38243;53.212;6.574;2022-11-20T03:33:34;15.30;85.40
52295;DHT22;38243;53.212;6.574;2022-11-20T03:36:05;15.30;85.70
52295;DHT22;38243;53.212;6.574;2022-11-20T03:38:31;15.30;85.50
52295;DHT22;38243;53.212;6.574;2022-11-20T03:41:06;15.30;85.60
52295;DHT22;38243;53.212;6.574;2022-11-20T03:43:32;15.30;85.70
52295;DHT22;38243;53.212;6.574;2022-11-20T03:45:58;15.30;85.50
52295;DHT22;38243;53.212;6.574;2022-11-20T03:48:24;15.30;85.70
52295;DHT22;38243;53.212;6.574;2022-11-20T03:50:51;15.30;85.40
52295;DHT22;38243;53.212;6.574;2022-11-20T03:53:18;15.20;85.40
52295;DHT22;38243;53.212;6.574;2022-11-20T03:55:43;15.30;85.40
52295;DHT22;38243;53.212;6.574;2022-11-20T03:58:09;15.30;85.70
52295;DHT22;38243;53.212;6.574;2022-11-20T04:00:35;15.30;85.70
52295;DHT22;38243;53.212;6.574;2022-11-20T04:03:02;15.20;85.60
52295;DHT22;38243;53.212;6.574;2022-11-20T04:05:28;15.30;85.40
52295;DHT22;38243;53.212;6.574;2022-11-20T04:07:54;15.20;85.30
52295;DHT22;38243;53.212;6.574;2022-11-20T04:10:19;15.30;85.20
52295;DHT22;38243;53.212;6.574;2022-11-20T04:12:45;15.30;85.30
52295;DHT22;38243;53.212;6.574;2022-11-20T04:15:11;15.20;84.90
52295;DHT22;38243;53.212;6.574;2022-11-20T04:17:37;15.20;84.80
52295;DHT22;38243;53.212;6.574;2022-11-20T04:20:03;15.20;84.90
52295;DHT22;38243;53.212;6.574;2022-11-20T04:22:29;15.30;85.00
52295;DHT22;38243;53.212;6.574;2022-11-20T04:24:54;15.20;85.20
52295;DHT22;38243;53.212;6.574;2022-11-20T04:27:20;15.20;85.00
52295;DHT22;38243;53.212;6.574;2022-11-20T04:29:46;15.20;85.20
52295;DHT22;38243;53.212;6.574;2022-11-20T04:32:11;15.20;85.20
52295;DHT22;38243;53.212;6.574;2022-11-20T04:34:37;15.20;85.20
52295;DHT22;38243;53.212;6.574;2022-11-20T04:37:03;15.20;85.20
52295;DHT22;38243;53.212;6.574;2022-11-20T04:39:28;15.20;85.20
52295;DHT22;38243;53.212;6.574;2022-11-20T04:41:54;15.20;85.20
52295;DHT22;38243;53.212;6.574;2022-11-20T04:44:49;15.20;85.10
52295;DHT22;38243;53.212;6.574;2022-11-20T04:47:15;15.20;85.10
52295;DHT22;38243;53.212;6.574;2022-11-20T04:49:40;15.20;84.90
52295;DHT22;38243;53.212;6.574;2022-11-20T04:52:06;15.20;84.90
52295;DHT22;38243;53.212;6.574;2022-11-20T04:54:32;15.20;84.80
52295;DHT22;38243;53.212;6.574;2022-11-20T04:56:57;15.20;84.80
52295;DHT22;38243;53.212;6.574;2022-11-20T04:59:23;15.20;84.70
52295;DHT22;38243;53.212;6.574;2022-11-20T05:01:49;15.20;84.30
52295;DHT22;38243;53.212;6.574;2022-11-20T05:04:14;15.10;84.00
52295;DHT22;38243;53.212;6.574;2022-11-20T05:06:40;15.20;84.70
52295;DHT22;38243;53.212;6.574;2022-11-20T05:09:06;15.20;84.70
52295;DHT22;38243;53.212;6.574;2022-11-20T05:11:32;15.20;84.20
52295;DHT22;38243;53.212;6.574;2022-11-20T05:13:59;15.20;84.40
52295;DHT22;38243;53.212;6.574;2022-11-20T05:16:25;15.20;84.40
52295;DHT22;38243;53.212;6.574;2022-11-20T05:18:52;15.20;84.40
52295;DHT22;38243;53.212;6.574;2022-11-20T05:21:20;15.20;84.50
52295;DHT22;38243;53.212;6.574;2022-11-20T05:23:46;15.20;83.80
52295;DHT22;38243;53.212;6.574;2022-11-20T05:26:14;15.20;84.40
52295;DHT22;38243;53.212;6.574;2022-11-20T05:28:40;15.20;84.30
52295;DHT22;38243;53.212;6.574;2022-11-20T05:31:07;15.20;84.10
52295;DHT22;38243;53.212;6.574;2022-11-20T05:33:34;15.20;84.20
52295;DHT22;38243;53.212;6.574;2022-11-20T05:36:00;15.20;84.40
52295;DHT22;38243;53.212;6.574;2022-11-20T05:38:25;15.20;84.50
52295;DHT22;38243;53.212;6.574;2022-11-20T05:40:51;15.20;84.50
52295;DHT22;38243;53.212;6.574;2022-11-20T05:43:17;15.20;84.40
52295;DHT22;38243;53.212;6.574;2022-11-20T05:45:43;15.20;84.40
52295;DHT22;38243;53.212;6.574;2022-11-20T05:48:16;15.10;83.90
52295;DHT22;38243;53.212;6.574;2022-11-20T05:50:42;15.20;83.70
52295;DHT22;38243;53.212;6.574;2022-11-20T05:53:07;15.20;83.90
52295;DHT22;38243;53.212;6.574;2022-11-20T05:55:33;15.10;83.80
52295;DHT22;38243;53.212;6.574;2022-11-20T05:57:59;15.10;83.80
52295;DHT22;38243;53.212;6.574;2022-11-20T06:00:24;15.20;83.90
52295;DHT22;38243;53.212;6.574;2022-11-20T06:02:50;15.10;83.90
52295;DHT22;38243;53.212;6.574;2022-11-20T06:05:16;15.10;84.00
52295;DHT22;38243;53.212;6.574;2022-11-20T06:07:41;15.10;83.90
52295;DHT22;38243;53.212;6.574;2022-11-20T06:10:07;15.10;84.10
52295;DHT22;38243;53.212;6.574;2022-11-20T06:12:33;15.10;84.20
52295;DHT22;38243;53.212;6.574;2022-11-20T06:14:59;15.20;84.50
52295;DHT22;38243;53.212;6.574;2022-11-20T06:17:25;15.20;84.20
52295;DHT22;38243;53.212;6.574;2022-11-20T06:19:51;15.20;84.20
52295;DHT22;38243;53.212;6.574;2022-11-20T06:22:16;15.10;84.20
52295;DHT22;38243;53.212;6.574;2022-11-20T06:24:42;15.10;84.10
52295;DHT22;38243;53.212;6.574;2022-11-20T06:27:08;15.20;84.10
52295;DHT22;38243;53.212;6.574;2022-11-20T06:29:33;15.20;84.00
52295;DHT22;38243;53.212;6.574;2022-11-20T06:32:00;15.10;84.10
52295;DHT22;38243;53.212;6.574;2022-11-20T06:34:26;15.10;84.10
52295;DHT22;38243;53.212;6.574;2022-11-20T06:36:52;15.10;83.90
52295;DHT22;38243;53.212;6.574;2022-11-20T06:39:17;15.20;83.80
52295;DHT22;38243;53.212;6.574;2022-11-20T06:41:43;15.20;83.90
52295;DHT22;38243;53.212;6.574;2022-11-20T06:44:09;15.10;83.80
52295;DHT22;38243;53.212;6.574;2022-11-20T06:46:34;15.10;83.70
52295;DHT22;38243;53.212;6.574;2022-11-20T06:49:00;15.10;84.00
52295;DHT22;38243;53.212;6.574;2022-11-20T06:51:26;15.20;84.10
52295;DHT22;38243;53.212;6.574;2022-11-20T06:53:51;15.10;84.10
52295;DHT22;38243;53.212;6.574;2022-11-20T06:56:18;15.10;84.10
52295;DHT22;38243;53.212;6.574;2022-11-20T06:58:43;15.10;84.10
52295;DHT22;38243;53.212;6.574;2022-11-20T07:01:11;15.10;84.10
52295;DHT22;38243;53.212;6.574;2022-11-20T07:03:37;15.10;83.90
52295;DHT22;38243;53.212;6.574;2022-11-20T07:06:04;15.10;83.90
52295;DHT22;38243;53.212;6.574;2022-11-20T07:08:30;15.10;83.90
52295;DHT22;38243;53.212;6.574;2022-11-20T07:11:00;15.10;83.80
52295;DHT22;38243;53.212;6.574;2022-11-20T07:13:27;15.10;83.80
52295;DHT22;38243;53.212;6.574;2022-11-20T07:15:53;15.10;83.90
52295;DHT22;38243;53.212;6.574;2022-11-20T07:18:19;15.10;83.90
52295;DHT22;38243;53.212;6.574;2022-11-20T07:20:45;15.10;83.90
52295;DHT22;38243;53.212;6.574;2022-11-20T07:23:10;15.10;84.10
52295;DHT22;38243;53.212;6.574;2022-11-20T07:25:36;15.10;84.10
52295;DHT22;38243;53.212;6.574;2022-11-20T07:28:02;15.10;84.00
52295;DHT22;38243;53.212;6.574;2022-11-20T07:30:29;15.10;84.00
52295;DHT22;38243;53.212;6.574;2022-11-20T07:32:56;15.10;84.10
52295;DHT22;38243;53.212;6.574;2022-11-20T07:35:23;15.10;83.90
52295;DHT22;38243;53.212;6.574;2022-11-20T07:37:49;15.10;83.90
52295;DHT22;38243;53.212;6.574;2022-11-20T07:40:18;15.10;84.10
52295;DHT22;38243;53.212;6.574;2022-11-20T07:42:49;15.10;84.00
52295;DHT22;38243;53.212;6.574;2022-11-20T07:45:16;15.10;84.10
52295;DHT22;38243;53.212;6.574;2022-11-20T07:47:41;15.10;84.00
52295;DHT22;38243;53.212;6.574;2022-11-20T07:50:07;15.10;84.00
52295;DHT22;38243;53.212;6.574;2022-11-20T07:52:33;15.10;83.80
52295;DHT22;38243;53.212;6.574;2022-11-20T07:54:59;15.10;83.90
52295;DHT22;38243;53.212;6.574;2022-11-20T07:57:24;15.10;84.00
52295;DHT22;38243;53.212;6.574;2022-11-20T07:59:50;15.10;83.90
52295;DHT22;38243;53.212;6.574;2022-11-20T08:02:16;15.10;84.00
52295;DHT22;38243;53.212;6.574;2022-11-20T08:04:41;15.10;84.00
52295;DHT22;38243;53.212;6.574;2022-11-20T08:07:07;15.10;83.90
52295;DHT22;38243;53.212;6.574;2022-11-20T08:09:33;15.10;84.00
52295;DHT22;38243;53.212;6.574;2022-11-20T08:11:59;15.10;84.00
52295;DHT22;38243;53.212;6.574;2022-11-20T08:14:43;15.10;83.80
52295;DHT22;38243;53.212;6.574;2022-11-20T08:17:08;15.10;83.90
52295;DHT22;38243;53.212;6.574;2022-11-20T08:19:35;15.10;84.10
52295;DHT22;38243;53.212;6.574;2022-11-20T08:22:00;15.10;84.00
52295;DHT22;38243;53.212;6.574;2022-11-20T08:24:26;15.10;83.90
52295;DHT22;38243;53.212;6.574;2022-11-20T08:26:52;15.10;84.00
52295;DHT22;38243;53.212;6.574;2022-11-20T08:29:18;15.10;84.00
52295;DHT22;38243;53.212;6.574;2022-11-20T08:31:44;15.10;84.00
52295;DHT22;38243;53.212;6.574;2022-11-20T08:34:10;15.10;84.00
52295;DHT22;38243;53.212;6.574;2022-11-20T08:36:36;15.10;84.00
52295;DHT22;38243;53.212;6.574;2022-11-20T08:39:03;15.10;83.90
52295;DHT22;38243;53.212;6.574;2022-11-20T08:41:29;15.10;83.80
52295;DHT22;38243;53.212;6.574;2022-11-20T08:44:00;15.10;83.70
52295;DHT22;38243;53.212;6.574;2022-11-20T08:46:38;15.10;83.50
52295;DHT22;38243;53.212;6.574;2022-11-20T08:49:09;15.10;83.10
52295;DHT22;38243;53.212;6.574;2022-11-20T08:51:35;15.10;82.50
52295;DHT22;38243;53.212;6.574;2022-11-20T08:54:01;15.10;83.40
52295;DHT22;38243;53.212;6.574;2022-11-20T08:56:27;15.10;83.60
52295;DHT22;38243;53.212;6.574;2022-11-20T08:58:53;15.10;83.60
52295;DHT22;38243;53.212;6.574;2022-11-20T09:01:20;15.10;83.50
52295;DHT22;38243;53.212;6.574;2022-11-20T09:03:46;15.10;83.20
52295;DHT22;38243;53.212;6.574;2022-11-20T09:06:13;15.10;83.30
52295;DHT22;38243;53.212;6.574;2022-11-20T09:08:39;15.10;82.90
52295;DHT22;38243;53.212;6.574;2022-11-20T09:11:05;15.10;82.50
52295;DHT22;38243;53.212;6.574;2022-11-20T09:13:34;15.10;82.40
52295;DHT22;38243;53.212;6.574;2022-11-20T09:16:02;15.00;81.70
52295;DHT22;38243;53.212;6.574;2022-11-20T09:18:29;15.10;82.10
52295;DHT22;38243;53.212;6.574;2022-11-20T09:21:00;15.10;82.60
52295;DHT22;38243;53.212;6.574;2022-11-20T09:23:27;15.00;82.70
52295;DHT22;38243;53.212;6.574;2022-11-20T09:25:52;15.00;82.40
52295;DHT22;38243;53.212;6.574;2022-11-20T09:28:21;15.00;82.20
52295;DHT22;38243;53.212;6.574;2022-11-20T09:30:47;15.00;82.40
52295;DHT22;38243;53.212;6.574;2022-11-20T09:33:12;15.00;81.80
52295;DHT22;38243;53.212;6.574;2022-11-20T09:35:38;15.00;81.40
52295;DHT22;38243;53.212;6.574;2022-11-20T09:38:05;14.90;81.30
52295;DHT22;38243;53.212;6.574;2022-11-20T09:40:32;14.90;81.10
52295;DHT22;38243;53.212;6.574;2022-11-20T09:43:06;14.90;81.60
52295;DHT22;38243;53.212;6.574;2022-11-20T09:48:57;14.90;81.10
52295;DHT22;38243;53.212;6.574;2022-11-20T09:51:57;14.90;80.60
52295;DHT22;38243;53.212;6.574;2022-11-20T09:54:30;14.90;80.60
52295;DHT22;38243;53.212;6.574;2022-11-20T09:57:00;14.90;80.60
52295;DHT22;38243;53.212;6.574;2022-11-20T09:59:39;14.80;80.60
52295;DHT22;38243;53.212;6.574;2022-11-20T10:02:26;14.80;80.40
52295;DHT22;38243;53.212;6.574;2022-11-20T10:07:36;14.90;80.20
52295;DHT22;38243;53.212;6.574;2022-11-20T10:10:03;14.90;80.30
52295;DHT22;38243;53.212;6.574;2022-11-20T10:23:35;15.00;80.70
52295;DHT22;38243;53.212;6.574;2022-11-20T10:31:34;15.10;80.90
52295;DHT22;38243;53.212;6.574;2022-11-20T10:34:07;15.10;81.40
52295;DHT22;38243;53.212;6.574;2022-11-20T10:36:44;15.10;81.80
52295;DHT22;38243;53.212;6.574;2022-11-20T10:39:22;15.10;82.90
52295;DHT22;38243;53.212;6.574;2022-11-20T10:41:52;15.20;82.90
52295;DHT22;38243;53.212;6.574;2022-11-20T10:44:21;15.20;82.90
52295;DHT22;38243;53.212;6.574;2022-11-20T10:47:13;15.20;83.10
52295;DHT22;38243;53.212;6.574;2022-11-20T10:49:41;15.30;83.10
52295;DHT22;38243;53.212;6.574;2022-11-20T10:52:25;15.30;83.30
52295;DHT22;38243;53.212;6.574;2022-11-20T11:00:05;15.40;82.40
52295;DHT22;38243;53.212;6.574;2022-11-20T11:07:41;15.40;82.60
52295;DHT22;38243;53.212;6.574;2022-11-20T11:10:18;15.50;82.00
52295;DHT22;38243;53.212;6.574;2022-11-20T11:12:47;15.50;81.90
52295;DHT22;38243;53.212;6.574;2022-11-20T11:15:27;15.50;81.00
52295;DHT22;38243;53.212;6.574;2022-11-20T11:17:54;15.50;82.60
52295;DHT22;38243;53.212;6.574;2022-11-20T11:20:24;15.50;82.20
52295;DHT22;38243;53.212;6.574;2022-11-20T11:22:55;15.50;82.30
52295;DHT22;38243;53.212;6.574;2022-11-20T11:25:31;15.50;81.80
52295;DHT22;38243;53.212;6.574;2022-11-20T11:30:44;15.50;81.60
52295;DHT22;38243;53.212;6.574;2022-11-20T11:33:18;15.50;81.10
52295;DHT22;38243;53.212;6.574;2022-11-20T11:35:52;15.50;81.40
52295;DHT22;38243;53.212;6.574;2022-11-20T11:38:38;15.50;81.50
52295;DHT22;38243;53.212;6.574;2022-11-20T11:41:05;15.50;80.90
52295;DHT22;38243;53.212;6.574;2022-11-20T11:43:35;15.40;81.10
52295;DHT22;38243;53.212;6.574;2022-11-20T11:49:14;15.50;80.10
52295;DHT22;38243;53.212;6.574;2022-11-20T11:54:30;15.50;80.80
52295;DHT22;38243;53.212;6.574;2022-11-20T11:57:01;15.40;80.10
52295;DHT22;38243;53.212;6.574;2022-11-20T12:02:05;15.40;79.30
52295;DHT22;38243;53.212;6.574;2022-11-20T12:04:43;15.40;79.80
52295;DHT22;38243;53.212;6.574;2022-11-20T12:09:49;15.40;79.40
52295;DHT22;38243;53.212;6.574;2022-11-20T12:12:20;15.40;79.30
52295;DHT22;38243;53.212;6.574;2022-11-20T12:14:49;15.40;79.10
52295;DHT22;38243;53.212;6.574;2022-11-20T12:17:18;15.50;79.10
52295;DHT22;38243;53.212;6.574;2022-11-20T12:19:44;15.50;79.50
52295;DHT22;38243;53.212;6.574;2022-11-20T12:25:11;16.60;81.90
52295;DHT22;38243;53.212;6.574;2022-11-20T12:30:16;15.50;81.40
52295;DHT22;38243;53.212;6.574;2022-11-20T12:38:13;15.70;81.60
52295;DHT22;38243;53.212;6.574;2022-11-20T12:43:29;15.70;81.60
52295;DHT22;38243;53.212;6.574;2022-11-20T12:52:07;15.70;80.60
52295;DHT22;38243;53.212;6.574;2022-11-20T12:54:53;15.70;81.00
52295;DHT22;38243;53.212;6.574;2022-11-20T13:00:12;15.60;79.20
52295;DHT22;38243;53.212;6.574;2022-11-20T13:03:43;15.60;80.20
52295;DHT22;38243;53.212;6.574;2022-11-20T13:08:37;15.60;78.40
52295;DHT22;38243;53.212;6.574;2022-11-20T13:11:08;15.60;78.10
52295;DHT22;38243;53.212;6.574;2022-11-20T13:14:33;15.60;78.60
52295;DHT22;38243;53.212;6.574;2022-11-20T13:16:54;15.60;78.90
52295;DHT22;38243;53.212;6.574;2022-11-20T13:19:24;15.60;79.10
52295;DHT22;38243;53.212;6.574;2022-11-20T13:21:50;15.60;78.00
52295;DHT22;38243;53.212;6.574;2022-11-20T13:26:44;15.60;77.40
52295;DHT22;38243;53.212;6.574;2022-11-20T13:29:20;15.60;77.20
52295;DHT22;38243;53.212;6.574;2022-11-20T13:31:47;15.60;77.60
52295;DHT22;38243;53.212;6.574;2022-11-20T13:34:24;15.60;77.90
52295;DHT22;38243;53.212;6.574;2022-11-20T13:36:53;15.60;78.10
52295;DHT22;38243;53.212;6.574;2022-11-20T13:39:27;15.60;78.30
52295;DHT22;38243;53.212;6.574;2022-11-20T13:42:20;15.60;78.50
52295;DHT22;38243;53.212;6.574;2022-11-20T13:44:44;15.60;78.50
52295;DHT22;38243;53.212;6.574;2022-11-20T13:47:26;15.60;78.10
52295;DHT22;38243;53.212;6.574;2022-11-20T13:49:54;15.60;77.10
52295;DHT22;38243;53.212;6.574;2022-11-20T13:55:47;15.60;77.40
52295;DHT22;38243;53.212;6.574;2022-11-20T14:01:25;15.60;76.90
52295;DHT22;38243;53.212;6.574;2022-11-20T14:03:52;15.60;76.90
52295;DHT22;38243;53.212;6.574;2022-11-20T14:06:28;15.50;77.00
52295;DHT22;38243;53.212;6.574;2022-11-20T14:08:56;15.60;77.50
52295;DHT22;38243;53.212;6.574;2022-11-20T14:11:30;15.50;77.40
52295;DHT22;38243;53.212;6.574;2022-11-20T14:14:17;15.50;77.10
52295;DHT22;38243;53.212;6.574;2022-11-20T14:16:43;15.50;77.70
52295;DHT22;38243;53.212;6.574;2022-11-20T14:19:27;15.50;77.20
52295;DHT22;38243;53.212;6.574;2022-11-20T14:22:06;15.50;77.00
52295;DHT22;38243;53.212;6.574;2022-11-20T14:24:32;15.50;77.60
52295;DHT22;38243;53.212;6.574;2022-11-20T14:26:58;15.50;77.20
52295;DHT22;38243;53.212;6.574;2022-11-20T14:29:34;15.50;77.00
52295;DHT22;38243;53.212;6.574;2022-11-20T14:32:01;15.50;77.00
52295;DHT22;38243;53.212;6.574;2022-11-20T14:34:30;15.40;77.20
52295;DHT22;38243;53.212;6.574;2022-11-20T14:37:04;15.40;77.40
52295;DHT22;38243;53.212;6.574;2022-11-20T14:39:35;15.40;77.00
52295;DHT22;38243;53.212;6.574;2022-11-20T14:42:15;15.40;77.50
52295;DHT22;38243;53.212;6.574;2022-11-20T14:44:42;15.40;78.00
52295;DHT22;38243;53.212;6.574;2022-11-20T14:47:09;15.40;77.90
52295;DHT22;38243;53.212;6.574;2022-11-20T14:49:37;15.40;77.80
52295;DHT22;38243;53.212;6.574;2022-11-20T14:52:14;15.40;78.00
52295;DHT22;38243;53.212;6.574;2022-11-20T14:54:48;15.40;77.70
52295;DHT22;38243;53.212;6.574;2022-11-20T14:57:29;15.40;78.20
52295;DHT22;38243;53.212;6.574;2022-11-20T15:02:33;15.40;78.40
52295;DHT22;38243;53.212;6.574;2022-11-20T15:05:01;15.30;78.10
52295;DHT22;38243;53.212;6.574;2022-11-20T15:07:36;15.30;78.30
52295;DHT22;38243;53.212;6.574;2022-11-20T15:10:08;15.30;77.80
52295;DHT22;38243;53.212;6.574;2022-11-20T15:12:40;15.30;77.70
52295;DHT22;38243;53.212;6.574;2022-11-20T15:15:12;15.30;78.00
52295;DHT22;38243;53.212;6.574;2022-11-20T15:17:40;15.30;77.70
52295;DHT22;38243;53.212;6.574;2022-11-20T15:20:14;15.30;78.60
52295;DHT22;38243;53.212;6.574;2022-11-20T15:22:41;15.30;77.60
52295;DHT22;38243;53.212;6.574;2022-11-20T15:25:17;15.30;77.50
52295;DHT22;38243;53.212;6.574;2022-11-20T15:27:44;15.30;78.10
52295;DHT22;38243;53.212;6.574;2022-11-20T15:30:19;15.30;78.40
52295;DHT22;38243;53.212;6.574;2022-11-20T15:32:45;15.30;78.10
52295;DHT22;38243;53.212;6.574;2022-11-20T15:35:12;15.30;78.10
52295;DHT22;38243;53.212;6.574;2022-11-20T15:37:38;15.20;77.30
52295;DHT22;38243;53.212;6.574;2022-11-20T15:40:05;15.20;77.90
52295;DHT22;38243;53.212;6.574;2022-11-20T15:42:32;15.30;77.80
52295;DHT22;38243;53.212;6.574;2022-11-20T15:44:58;15.30;77.80
52295;DHT22;38243;53.212;6.574;2022-11-20T15:47:34;15.30;77.90
52295;DHT22;38243;53.212;6.574;2022-11-20T15:50:00;15.20;77.50
52295;DHT22;38243;53.212;6.574;2022-11-20T15:52:26;15.20;77.40
52295;DHT22;38243;53.212;6.574;2022-11-20T15:54:52;15.20;77.60
52295;DHT22;38243;53.212;6.574;2022-11-20T15:57:17;15.20;77.60
52295;DHT22;38243;53.212;6.574;2022-11-20T15:59:43;15.20;78.00
52295;DHT22;38243;53.212;6.574;2022-11-20T16:02:11;15.20;78.30
52295;DHT22;38243;53.212;6.574;2022-11-20T16:04:37;15.30;77.80
52295;DHT22;38243;53.212;6.574;2022-11-20T16:07:03;15.30;78.60
52295;DHT22;38243;53.212;6.574;2022-11-20T16:09:29;15.30;78.10
52295;DHT22;38243;53.212;6.574;2022-11-20T16:11:54;15.30;78.80
52295;DHT22;38243;53.212;6.574;2022-11-20T16:14:20;15.30;78.90
52295;DHT22;38243;53.212;6.574;2022-11-20T16:17:05;15.30;79.30
52295;DHT22;38243;53.212;6.574;2022-11-20T16:19:30;15.30;79.80
52295;DHT22;38243;53.212;6.574;2022-11-20T16:21:59;15.30;79.50
52295;DHT22;38243;53.212;6.574;2022-11-20T16:24:28;15.30;79.60
52295;DHT22;38243;53.212;6.574;2022-11-20T16:26:54;15.30;79.00
52295;DHT22;38243;53.212;6.574;2022-11-20T16:29:20;15.30;79.50
52295;DHT22;38243;53.212;6.574;2022-11-20T16:31:46;15.30;79.10
52295;DHT22;38243;53.212;6.574;2022-11-20T16:34:11;15.30;79.50
52295;DHT22;38243;53.212;6.574;2022-11-20T16:36:40;15.30;78.70
52295;DHT22;38243;53.212;6.574;2022-11-20T16:39:06;15.30;79.40
52295;DHT22;38243;53.212;6.574;2022-11-20T16:41:34;15.30;79.20
52295;DHT22;38243;53.212;6.574;2022-11-20T16:44:01;15.30;79.60
52295;DHT22;38243;53.212;6.574;2022-11-20T16:46:29;15.30;79.30
52295;DHT22;38243;53.212;6.574;2022-11-20T16:49:01;15.30;79.00
52295;DHT22;38243;53.212;6.574;2022-11-20T16:51:28;15.30;79.30
52295;DHT22;38243;53.212;6.574;2022-11-20T16:53:54;15.30;79.30
52295;DHT22;38243;53.212;6.574;2022-11-20T16:56:22;15.30;79.00
52295;DHT22;38243;53.212;6.574;2022-11-20T16:58:49;15.30;79.10
52295;DHT22;38243;53.212;6.574;2022-11-20T17:01:20;15.30;79.10
52295;DHT22;38243;53.212;6.574;2022-11-20T17:03:53;15.20;78.60
52295;DHT22;38243;53.212;6.574;2022-11-20T17:06:21;15.30;78.50